Data for 10/08/2005

Time Sea-Level Adjusted Pressure Absolute Pressure Temperature Relative Humidity Dew Point   
(mb) (inHg) (mb) (inHg) (C) (F) (%) (C) (F)
00:05 1012 29.88 841 24.83 8.1 46.6 61 1.1 34
00:10 1012 29.88 841 24.83 8.1 46.6 61 1.1 34
00:15 1012 29.88 841 24.83 8.1 46.5 62 1.2 34.2
00:20 1012 29.88 841 24.83 8.1 46.6 62 1.3 34.3
00:25 1012 29.88 841 24.83 8.2 46.8 61 1.2 34.2
00:30 1012 29.88 841 24.83 8.4 47.2 60 1.2 34.1
00:35 1012 29.88 841 24.83 8.3 46.9 62 1.5 34.7
00:40 1012 29.88 841 24.83 8 46.4 63 1.5 34.8
00:45 1012 29.88 841 24.83 7.8 46 63 1.3 34.3
00:50 1012 29.88 841 24.83 7.7 45.9 65 1.7 35
00:55 1012 29.88 841 24.83 7.6 45.6 66 1.6 34.9
01:00 1012 29.88 841 24.83 7.6 45.7 65 1.4 34.5
01:05 1012 29.88 841 24.83 7.7 45.9 63 1.1 34
01:10 1012 29.88 842 24.86 7.9 46.2 62 1.1 34
01:15 1012 29.88 841 24.83 7.9 46.2 62 1.2 34.1
01:20 1012 29.88 842 24.86 7.9 46.2 60 0.6 33.1
01:25 1012 29.88 842 24.86 8.2 46.7 59 0.6 33.2
01:30 1012 29.88 842 24.86 8.3 46.9 57 0.4 32.6
01:35 1012 29.88 841 24.83 8.4 47.1 57 0.5 32.9
01:40 1012 29.88 841 24.83 8.4 47.1 57 0.3 32.5
01:45 1012 29.88 842 24.86 8.5 47.3 57 0.4 32.7
01:50 1012 29.88 842 24.86 8.5 47.3 56 0.2 32.4
01:55 1012 29.88 842 24.86 8.5 47.3 56 0.3 32.6
02:00 1012 29.88 842 24.86 8.5 47.2 56 0.3 32.6
02:05 1012 29.88 842 24.86 8.4 47.1 57 0.5 32.8
02:10 1012 29.88 842 24.86 8.4 47 57 0.3 32.5
02:15 1012 29.88 842 24.86 8.3 47 58 0.5 32.9
02:20 1012 29.88 842 24.86 8.4 47.1 57 0.5 32.9
02:25 1012 29.88 842 24.86 8.4 47.2 57 0.4 32.7
02:30 1012 29.88 842 24.86 8.4 47.1 57 0.4 32.7
02:35 1012 29.88 842 24.86 8.3 47 57 0.5 32.8
02:40 1012 29.88 842 24.86 8.4 47 58 0.6 33.2
02:45 1012 29.88 842 24.86 8.3 46.9 58 0.5 32.9
02:50 1012 29.88 842 24.86 8.2 46.8 59 0.8 33.5
02:55 1012 29.88 841 24.83 8.3 47 59 0.8 33.4
03:00 1012 29.88 841 24.83 8.3 47 59 0.9 33.6
03:05 1012 29.88 841 24.83 8.4 47 60 1.1 34
03:10 1012 29.88 841 24.83 8.3 46.9 63 1.7 35.1
03:15 1012 29.88 842 24.86 8 46.4 66 2 35.7
03:20 1012 29.88 842 24.86 7.9 46.1 68 2.3 36.1
03:25 1012 29.88 842 24.86 7.6 45.7 71 2.6 36.8
03:30 1012 29.88 842 24.86 7.4 45.4 69 2.2 35.9
03:35 1012 29.88 842 24.86 7.4 45.4 73 2.9 37.1
03:40 1012 29.88 841 24.83 7 44.6 72 2.3 36.1
03:45 1012 29.88 841 24.83 6.7 44.1 74 2.4 36.3
03:50 1012 29.88 841 24.83 6.8 44.3 75 2.7 36.9
03:55 1012 29.88 841 24.83 6.5 43.6 79 3.2 37.7
04:00 1012 29.88 841 24.83 6.1 43 81 3.1 37.6
04:05 1012 29.88 841 24.83 5.9 42.6 81 3 37.4
04:10 1012 29.88 841 24.83 5.9 42.5 83 3.1 37.6
04:15 1012 29.88 841 24.83 5.8 42.5 84 3.4 38.1
04:20 1012 29.88 841 24.83 5.8 42.5 84 3.3 37.9
04:25 1012 29.88 841 24.83 5.8 42.4 85 3.5 38.3
04:30 1012 29.88 841 24.83 5.7 42.2 88 3.8 38.9
04:35 1012 29.88 841 24.83 5.6 42.1 88 3.7 38.7
04:40 1012 29.88 841 24.83 5.6 42 89 3.9 38.9
04:45 1012 29.88 841 24.83 5.5 42 89 3.8 38.9
04:50 1012 29.88 841 24.83 5.5 41.8 89 3.8 38.8
04:55 1012 29.88 841 24.83 5.4 41.7 89 3.7 38.7
05:00 1012 29.88 841 24.83 5.4 41.8 88 3.6 38.4
05:05 1012 29.88 841 24.83 5.4 41.7 89 3.7 38.7
05:10 1012 29.88 841 24.83 5.4 41.7 90 3.9 39
05:15 1012 29.88 841 24.83 5.3 41.6 91 4 39.1
05:20 1012 29.88 841 24.83 5.2 41.4 92 4 39.2
05:25 1012 29.88 841 24.83 5.2 41.4 91 3.9 38.9
05:30 1012 29.88 841 24.83 5.2 41.4 91 3.8 38.9
05:35 1012 29.88 841 24.83 5.2 41.4 91 3.9 39
05:40 1012 29.88 841 24.83 5.2 41.3 92 3.9 39.1
05:45 1012 29.88 841 24.83 5.1 41.3 92 3.9 39
05:50 1012 29.88 841 24.83 5.2 41.3 92 4 39.2
05:55 1012 29.88 841 24.83 5.2 41.4 92 4.1 39.3
06:00 1012 29.88 841 24.83 5.2 41.3 92 4 39.3
06:05 1012 29.88 841 24.83 5.1 41.2 93 4.1 39.4
06:10 1012 29.88 841 24.83 5.1 41.1 94 4.1 39.4
06:15 1012 29.88 841 24.83 5.1 41.1 93 4.1 39.3
06:20 1012 29.88 841 24.83 5.1 41.2 94 4.2 39.5
06:25 1012 29.88 841 24.83 5.1 41.1 93 4.1 39.3
06:30 1012 29.88 841 24.83 5.1 41.3 93 4.2 39.5
06:35 1012 29.88 841 24.83 5.1 41.1 93 4 39.2
06:40 1012 29.88 841 24.83 5.2 41.3 93 4.2 39.5
06:45 1012 29.88 841 24.83 5.2 41.4 93 4.1 39.4
06:50 1012 29.88 841 24.83 5.1 41.2 93 4.1 39.3
06:55 1012 29.88 841 24.83 5.2 41.3 93 4.1 39.5
07:00 1012 29.88 841 24.83 5.2 41.3 93 4.1 39.4
07:05 1012 29.88 841 24.83 5.1 41.2 93 4.2 39.5
07:10 1012 29.88 841 24.83 5.2 41.3 94 4.2 39.6
07:15 1012 29.88 841 24.83 5.2 41.4 94 4.3 39.7
07:20 1012 29.88 841 24.83 5.3 41.5 92 4.1 39.4
07:25 1012 29.88 841 24.83 5.1 41.2 92 4 39.2
07:30 1012 29.88 841 24.83 5.1 41.1 93 4 39.2
07:35 1012 29.88 841 24.83 5.1 41.2 93 4.1 39.4
07:40 1012 29.88 841 24.83 5.2 41.4 94 4.3 39.7
07:45 1012 29.88 841 24.83 5.3 41.5 94 4.4 39.9
07:50 1012 29.88 841 24.83 5.2 41.4 94 4.4 39.9
07:55 1012 29.88 841 24.83 5.3 41.5 95 4.5 40
08:00 1012 29.88 841 24.83 5.2 41.3 96 4.6 40.2
08:05 1012 29.88 841 24.83 5.1 41.2 97 4.6 40.3
08:10 1012 29.88 841 24.83 5.2 41.3 97 4.8 40.6
08:15 1012 29.88 841 24.83 5.3 41.6 97 4.9 40.8
08:20 1012 29.88 841 24.83 5.5 41.9 96 4.9 40.9
08:25 1012 29.88 841 24.83 5.4 41.8 96 4.9 40.7
08:30 1012 29.88 841 24.83 5.6 42.1 95 5 40.9
08:35 1012 29.88 841 24.83 5.8 42.4 95 5 41
08:40 1012 29.88 841 24.83 5.8 42.5 93 4.8 40.7
08:45 1012 29.88 841 24.83 5.9 42.6 93 4.8 40.6
08:50 1012 29.88 841 24.83 5.9 42.6 92 4.7 40.5
08:55 1012 29.88 841 24.83 5.8 42.4 93 4.7 40.4
09:00 1012 29.88 841 24.83 5.7 42.2 93 4.6 40.2
09:05 1012 29.88 841 24.83 5.5 42 93 4.5 40
09:10 1012 29.88 841 24.83 5.5 42 93 4.5 40.1
09:15 1012 29.88 841 24.83 5.6 42.1 93 4.6 40.2
09:20 1012 29.88 841 24.83 5.5 42 93 4.5 40.1
09:25 1012 29.88 841 24.83 5.5 41.9 93 4.5 40.1
09:30 1012 29.88 841 24.83 5.4 41.8 93 4.4 40
09:35 1012 29.88 841 24.83 5.5 41.8 94 4.5 40.2
09:40 1012 29.88 841 24.83 5.5 41.9 93 4.5 40.2
09:45 1012 29.88 841 24.83 5.5 41.9 94 4.7 40.4
09:50 1012 29.88 841 24.83 5.6 42 94 4.6 40.3
09:55 1012 29.88 841 24.83 5.6 42.1 93 4.5 40.1
10:00 1012 29.88 841 24.83 5.6 42.2 92 4.5 40.1
10:05 1012 29.88 841 24.83 5.7 42.2 92 4.5 40.2
10:10 1012 29.88 841 24.83 5.8 42.4 92 4.6 40.3
10:15 1012 29.88 841 24.83 5.7 42.2 93 4.6 40.3
10:20 1012 29.88 841 24.83 5.6 42.1 93 4.6 40.2
10:25 1012 29.88 841 24.83 5.4 41.8 94 4.5 40.1
10:30 1012 29.88 841 24.83 5.2 41.3 94 4.3 39.7
10:35 1012 29.88 841 24.83 5.1 41.1 94 4.2 39.5
10:40 1012 29.88 841 24.83 5.1 41.1 94 4.2 39.6
10:45 1012 29.88 841 24.83 5 41.1 94 4.1 39.4
10:50 1012 29.88 841 24.83 4.9 40.8 94 4 39.2
10:55 1012 29.88 841 24.83 5 40.9 94 4.1 39.4
11:00 1012 29.88 841 24.83 5 40.9 94 4.1 39.4
11:05 1012 29.88 841 24.83 5 40.9 94 4.1 39.3
11:10 1012 29.88 841 24.83 4.9 40.9 94 4.1 39.4
11:15 1012 29.88 841 24.83 5 41 94 4.1 39.3
11:20 1012 29.88 841 24.83 5.1 41.1 94 4.2 39.6
11:25 1012 29.88 841 24.83 5.2 41.3 93 4.2 39.5
11:30 1012 29.88 841 24.83 5.1 41.2 93 4 39.2
11:35 1012 29.88 841 24.83 5.1 41.2 92 4 39.2
11:40 1012 29.88 841 24.83 5.1 41.3 92 4 39.2
11:45 1012 29.88 841 24.83 5.1 41.3 91 3.8 38.8
11:50 1012 29.88 841 24.83 5 41.1 91 3.7 38.6
11:55 1012 29.88 841 24.83 5.1 41.2 91 3.7 38.7
12:00 1012 29.88 841 24.83 5.1 41.3 91 3.8 38.8
12:05 1012 29.88 841 24.83 5.2 41.3 87 3.2 37.8
12:10 1012 29.88 841 24.83 5.3 41.5 89 3.6 38.4
12:15 1012 29.88 841 24.83 5.4 41.8 87 3.4 38.2
12:20 1012 29.88 841 24.83 5.4 41.8 85 3 37.5
12:25 1012 29.88 841 24.83 5.5 41.8 84 3 37.5
12:30 1012 29.88 841 24.83 5.4 41.8 84 3 37.3
12:35 1012 29.88 841 24.83 5.3 41.6 84 2.9 37.2
12:40 1012 29.88 841 24.83 5.2 41.4 85 3 37.4
12:45 1012 29.88 841 24.83 5.3 41.5 87 3.3 37.9
12:50 1012 29.88 841 24.83 5.4 41.7 86 3.2 37.8
12:55 1012 29.88 841 24.83 5.4 41.8 86 3.3 38
13:00 1012 29.88 841 24.83 5.4 41.7 84 2.8 37.1
13:05 1012 29.88 841 24.83 5.4 41.7 86 3.3 37.9
13:10 1012 29.88 841 24.83 5.3 41.6 85 3 37.5
13:15 1012 29.88 841 24.83 5.2 41.4 88 3.4 38.1
13:20 1012 29.88 841 24.83 5.4 41.8 87 3.5 38.3
13:25 1011 29.85 841 24.83 5.4 41.7 87 3.4 38.2
13:30 1011 29.85 841 24.83 5.2 41.4 89 3.6 38.5
13:35 1011 29.85 841 24.83 5.1 41.2 87 3.1 37.6
13:40 1011 29.85 841 24.83 4.8 40.7 91 3.5 38.4
13:45 1011 29.85 841 24.83 4.8 40.6 89 3.1 37.5
13:50 1011 29.85 840 24.81 4.6 40.2 92 3.4 38.1
13:55 1011 29.85 840 24.81 4.8 40.6 90 3.2 37.8
14:00 1011 29.85 840 24.81 4.7 40.4 90 3.1 37.6
14:05 1011 29.85 840 24.81 4.6 40.4 91 3.2 37.8
14:10 1011 29.85 840 24.81 4.6 40.3 91 3.2 37.8
14:15 1011 29.85 840 24.81 4.5 40.1 90 3.1 37.5
14:20 1011 29.85 840 24.81 4.3 39.7 91 2.9 37.2
14:25 1011 29.85 840 24.81 4.1 39.3 92 2.8 37
14:30 1011 29.85 840 24.81 4.1 39.3 91 2.8 37
14:35 1011 29.85 840 24.81 4.1 39.3 91 2.7 36.8
14:40 1011 29.85 840 24.81 4.1 39.4 92 2.9 37.2
14:45 1011 29.85 840 24.81 4.3 39.7 88 2.5 36.5
14:50 1011 29.85 841 24.83 4.2 39.5 88 2.4 36.2
14:55 1011 29.85 841 24.83 3.9 39 91 2.5 36.4
15:00 1011 29.85 841 24.83 3.8 38.9 92 2.6 36.6
15:05 1011 29.85 841 24.83 3.8 38.9 92 2.6 36.6
15:10 1011 29.85 841 24.83 3.6 38.5 92 2.5 36.5
15:15 1011 29.85 841 24.83 3.6 38.5 91 2.3 36.2
15:20 1011 29.85 841 24.83 3.4 38.1 91 2.1 35.9
15:25 1012 29.88 841 24.83 3.2 37.7 92 1.9 35.5
15:30 1011 29.85 841 24.83 3.1 37.6 93 2.1 35.8
15:35 1011 29.85 841 24.83 3.1 37.7 93 2.1 35.8
15:40 1012 29.88 841 24.83 3.1 37.5 92 1.8 35.3
15:45 1011 29.85 841 24.83 2.9 37.3 92 1.8 35.3
15:50 1011 29.85 841 24.83 2.8 37.1 93 1.8 35.2
15:55 1011 29.85 841 24.83 2.9 37.2 93 1.9 35.5
16:00 1011 29.85 841 24.83 2.8 37.1 92 1.7 35
16:05 1011 29.85 841 24.83 2.7 36.8 93 1.7 35.1
16:10 1012 29.88 841 24.83 2.7 36.8 93 1.6 34.9
16:15 1012 29.88 841 24.83 2.7 36.8 93 1.6 34.9
16:20 1012 29.88 841 24.83 2.8 37 92 1.6 34.9
16:25 1012 29.88 841 24.83 2.8 37 93 1.8 35.2
16:30 1012 29.88 841 24.83 2.7 36.8 92 1.5 34.6
16:35 1012 29.88 841 24.83 2.5 36.6 93 1.6 34.8
16:40 1012 29.88 841 24.83 2.7 36.9 92 1.5 34.7
16:45 1012 29.88 841 24.83 2.7 36.8 93 1.6 34.8
16:50 1012 29.88 841 24.83 2.7 36.9 93 1.7 35
16:55 1012 29.88 841 24.83 2.7 36.8 93 1.6 34.9
17:00 1012 29.88 841 24.83 2.8 37 94 1.8 35.3
17:05 1012 29.88 841 24.83 3 37.5 92 1.9 35.4
17:10 1012 29.88 841 24.83 3.3 37.9 92 2.1 35.7
17:15 1012 29.88 841 24.83 3.2 37.8 90 1.8 35.3
17:20 1012 29.88 841 24.83 3.1 37.6 91 1.8 35.2
17:25 1012 29.88 841 24.83 3.1 37.5 91 1.7 35.1
17:30 1012 29.88 841 24.83 3 37.5 92 1.9 35.4
17:35 1012 29.88 841 24.83 2.9 37.3 92 1.7 35.1
17:40 1012 29.88 842 24.86 2.8 37.1 92 1.6 34.9
17:45 1012 29.88 842 24.86 2.8 37 92 1.6 34.8
17:50 1012 29.88 842 24.86 2.6 36.7 92 1.5 34.7
17:55 1012 29.88 842 24.86 2.7 36.9 93 1.7 35
18:00 1013 29.91 842 24.86 2.8 37 93 1.7 35.1
18:05 1013 29.91 842 24.86 2.8 37.1 93 1.7 35.1
18:10 1013 29.91 842 24.86 2.8 37 93 1.8 35.2
18:15 1013 29.91 842 24.86 2.9 37.2 92 1.7 35.1
18:20 1013 29.91 842 24.86 2.8 37.1 93 1.8 35.3
18:25 1013 29.91 842 24.86 2.8 37.1 93 1.8 35.2
18:30 1013 29.91 842 24.86 2.6 36.7 93 1.6 35
18:35 1013 29.91 842 24.86 2.4 36.3 93 1.4 34.5
18:40 1013 29.91 842 24.86 2.2 35.9 94 1.3 34.4
18:45 1013 29.91 842 24.86 2 35.7 95 1.3 34.3
18:50 1013 29.91 842 24.86 1.8 35.3 95 1.1 34.1
18:55 1013 29.91 842 24.86 1.8 35.2 95 1.1 34
19:00 1013 29.91 842 24.86 1.6 34.9 96 1 33.8
19:05 1013 29.91 842 24.86 1.5 34.8 96 0.9 33.7
19:10 1013 29.91 842 24.86 1.5 34.6 96 0.8 33.5
19:15 1013 29.91 842 24.86 1.4 34.6 96 0.9 33.6
19:20 1013 29.91 842 24.86 1.4 34.6 96 0.9 33.6
19:25 1013 29.91 842 24.86 1.5 34.7 96 0.9 33.7
19:30 1013 29.91 842 24.86 1.4 34.6 96 0.9 33.7
19:35 1013 29.91 843 24.89 1.6 34.8 96 1.1 33.9
19:40 1013 29.91 843 24.89 1.6 34.8 96 1.1 33.9
19:45 1013 29.91 843 24.89 1.7 35.1 96 1.1 34
19:50 1013 29.91 843 24.89 1.9 35.3 96 1.2 34.2
19:55 1013 29.91 843 24.89 2 35.6 96 1.4 34.5
20:00 1013 29.91 843 24.89 2.1 35.8 95 1.4 34.5
20:05 1013 29.91 843 24.89 2.2 36 95 1.5 34.6
20:10 1013 29.91 843 24.89 2.2 36 95 1.4 34.6
20:15 1013 29.91 843 24.89 2.3 36.2 95 1.6 34.8
20:20 1014 29.94 843 24.89 2.2 36 95 1.5 34.7
20:25 1014 29.94 843 24.89 2.1 35.8 96 1.5 34.8
20:30 1014 29.94 843 24.89 2.1 35.7 97 1.6 35
20:35 1014 29.94 843 24.89 2.1 35.8 98 1.8 35.2
20:40 1014 29.94 843 24.89 2 35.6 98 1.7 35
20:45 1014 29.94 843 24.89 1.9 35.5 98 1.6 34.9
20:50 1014 29.94 843 24.89 2 35.6 98 1.7 35.1
20:55 1014 29.94 843 24.89 1.9 35.3 98 1.6 34.8
21:00 1014 29.94 843 24.89 1.9 35.4 98 1.5 34.8
21:05 1014 29.94 843 24.89 1.7 35.1 98 1.5 34.6
21:10 1014 29.94 843 24.89 1.7 35 98 1.3 34.4
21:15 1014 29.94 843 24.89 1.5 34.8 98 1.3 34.3
21:20 1014 29.94 843 24.89 1.5 34.7 98 1.3 34.3
21:25 1014 29.94 843 24.89 1.4 34.6 99 1.2 34.2
21:30 1014 29.94 843 24.89 1.5 34.7 98 1.3 34.3
21:35 1014 29.94 843 24.89 1.5 34.6 99 1.3 34.3
21:40 1014 29.94 843 24.89 1.5 34.7 99 1.3 34.4
21:45 1014 29.94 843 24.89 1.5 34.7 99 1.3 34.4
21:50 1014 29.94 843 24.89 1.5 34.7 99 1.3 34.3
21:55 1014 29.94 843 24.89 1.6 34.9 99 1.4 34.5
22:00 1014 29.94 843 24.89 1.7 35.1 98 1.4 34.6
22:05 1014 29.94 843 24.89 1.8 35.2 98 1.5 34.8
22:10 1014 29.94 843 24.89 1.8 35.3 97 1.5 34.7
22:15 1014 29.94 843 24.89 1.8 35.2 98 1.4 34.6
22:20 1014 29.94 843 24.89 1.8 35.2 98 1.4 34.6
22:25 1014 29.94 843 24.89 1.8 35.2 98 1.5 34.7
22:30 1014 29.94 843 24.89 1.7 35.1 98 1.5 34.6
22:35 1014 29.94 843 24.89 1.8 35.3 98 1.6 34.9
22:40 1014 29.94 843 24.89 1.9 35.4 98 1.6 35
22:45 1014 29.94 843 24.89 2 35.6 98 1.8 35.2
22:50 1014 29.94 843 24.89 2.1 35.7 98 1.9 35.3
22:55 1014 29.94 843 24.89 2.2 35.9 98 1.9 35.4
23:00 1014 29.94 843 24.89 2.2 36 98 2 35.5
23:05 1014 29.94 843 24.89 2.3 36.1 98 2 35.6
23:10 1014 29.94 843 24.89 2.2 36 98 1.9 35.4
23:15 1014 29.94 843 24.89 2.2 35.9 98 1.9 35.4
23:20 1014 29.94 843 24.89 2.2 36 98 1.9 35.4
23:25 1014 29.94 843 24.89 2.2 36 98 1.9 35.4
23:30 1014 29.94 843 24.89 2.2 35.9 97 1.8 35.3
23:35 1014 29.94 843 24.89 2.1 35.8 98 1.7 35.1
23:40 1014 29.94 843 24.89 2.1 35.8 98 1.8 35.3
23:45 1014 29.94 843 24.89 2.1 35.8 98 1.9 35.3
23:50 1014 29.94 843 24.89 2.1 35.9 98 1.9 35.4
23:55 1014 29.94 843 24.89 2.1 35.8 98 1.8 35.2
24:00 1014 29.94 843 24.89 2.1 35.7 98 1.7 35.1